sensor_id;sensor_type;location;lat;lon;timestamp;pressure;altitude;pressure_sealevel;temperature
61977;BMP280;45905;50.570;10.428;2024-03-25T00:00:35;96677.41;;;5.09
61977;BMP280;45905;50.570;10.428;2024-03-25T00:03:02;96676.63;;;5.08
61977;BMP280;45905;50.570;10.428;2024-03-25T00:05:28;96682.44;;;5.09
61977;BMP280;45905;50.570;10.428;2024-03-25T00:07:55;96681.63;;;5.08
61977;BMP280;45905;50.570;10.428;2024-03-25T00:10:22;96682.28;;;5.10
61977;BMP280;45905;50.570;10.428;2024-03-25T00:12:48;96682.78;;;5.13
61977;BMP280;45905;50.570;10.428;2024-03-25T00:15:19;96683.72;;;5.13
61977;BMP280;45905;50.570;10.428;2024-03-25T00:17:47;96688.09;;;5.11
61977;BMP280;45905;50.570;10.428;2024-03-25T00:20:14;96684.31;;;5.07
61977;BMP280;45905;50.570;10.428;2024-03-25T00:22:41;96690.44;;;5.04
61977;BMP280;45905;50.570;10.428;2024-03-25T00:25:08;96689.63;;;5.04
61977;BMP280;45905;50.570;10.428;2024-03-25T00:27:35;96699.66;;;5.04
61977;BMP280;45905;50.570;10.428;2024-03-25T00:30:01;96703.91;;;5.03
61977;BMP280;45905;50.570;10.428;2024-03-25T00:32:28;96697.81;;;5.06
61977;BMP280;45905;50.570;10.428;2024-03-25T00:34:54;96690.88;;;5.08
61977;BMP280;45905;50.570;10.428;2024-03-25T00:37:21;96699.38;;;5.07
61977;BMP280;45905;50.570;10.428;2024-03-25T00:39:48;96688.84;;;5.03
61977;BMP280;45905;50.570;10.428;2024-03-25T00:42:14;96682.41;;;5.01
61977;BMP280;45905;50.570;10.428;2024-03-25T00:44:41;96690.53;;;4.95
61977;BMP280;45905;50.570;10.428;2024-03-25T00:47:07;96686.63;;;5.00
61977;BMP280;45905;50.570;10.428;2024-03-25T00:49:34;96692.78;;;5.06
61977;BMP280;45905;50.570;10.428;2024-03-25T00:52:00;96698.41;;;5.08
61977;BMP280;45905;50.570;10.428;2024-03-25T00:54:28;96696.69;;;5.08
61977;BMP280;45905;50.570;10.428;2024-03-25T00:56:54;96696.88;;;5.07
61977;BMP280;45905;50.570;10.428;2024-03-25T00:59:21;96693.41;;;5.08
61977;BMP280;45905;50.570;10.428;2024-03-25T01:01:47;96694.38;;;5.07
61977;BMP280;45905;50.570;10.428;2024-03-25T01:04:14;96700.31;;;5.06
61977;BMP280;45905;50.570;10.428;2024-03-25T01:06:41;96702.31;;;5.02
61977;BMP280;45905;50.570;10.428;2024-03-25T01:09:08;96700.91;;;5.00
61977;BMP280;45905;50.570;10.428;2024-03-25T01:11:36;96708.75;;;4.97
61977;BMP280;45905;50.570;10.428;2024-03-25T01:14:02;96701.22;;;4.97
61977;BMP280;45905;50.570;10.428;2024-03-25T01:16:29;96704.38;;;4.99
61977;BMP280;45905;50.570;10.428;2024-03-25T01:18:55;96711.72;;;5.00
61977;BMP280;45905;50.570;10.428;2024-03-25T01:21:21;96709.06;;;5.02
61977;BMP280;45905;50.570;10.428;2024-03-25T01:23:48;96713.66;;;5.06
61977;BMP280;45905;50.570;10.428;2024-03-25T01:26:14;96712.38;;;5.02
61977;BMP280;45905;50.570;10.428;2024-03-25T01:28:41;96713.16;;;5.03
61977;BMP280;45905;50.570;10.428;2024-03-25T01:31:07;96713.16;;;5.03
61977;BMP280;45905;50.570;10.428;2024-03-25T01:33:34;96704.69;;;5.04
61977;BMP280;45905;50.570;10.428;2024-03-25T01:36:01;96713.66;;;5.06
61977;BMP280;45905;50.570;10.428;2024-03-25T01:38:28;96710.03;;;5.09
61977;BMP280;45905;50.570;10.428;2024-03-25T01:40:54;96702.50;;;5.09
61977;BMP280;45905;50.570;10.428;2024-03-25T01:43:22;96701.91;;;5.07
61977;BMP280;45905;50.570;10.428;2024-03-25T01:45:51;96709.06;;;5.02
61977;BMP280;45905;50.570;10.428;2024-03-25T01:48:19;96708.00;;;5.04
61977;BMP280;45905;50.570;10.428;2024-03-25T01:50:46;96705.91;;;5.00
61977;BMP280;45905;50.570;10.428;2024-03-25T01:53:14;96703.13;;;5.03
61977;BMP280;45905;50.570;10.428;2024-03-25T01:55:42;96711.28;;;5.05
61977;BMP280;45905;50.570;10.428;2024-03-25T01:58:09;96721.94;;;4.99
61977;BMP280;45905;50.570;10.428;2024-03-25T02:00:36;96724.13;;;5.02
61977;BMP280;45905;50.570;10.428;2024-03-25T02:03:04;96729.50;;;5.07
61977;BMP280;45905;50.570;10.428;2024-03-25T02:05:34;96722.13;;;5.05
61977;BMP280;45905;50.570;10.428;2024-03-25T02:08:03;96722.91;;;5.06
61977;BMP280;45905;50.570;10.428;2024-03-25T02:10:30;96729.78;;;5.04
61977;BMP280;45905;50.570;10.428;2024-03-25T02:12:56;96729.66;;;5.05
61977;BMP280;45905;50.570;10.428;2024-03-25T02:15:22;96741.41;;;5.05
61977;BMP280;45905;50.570;10.428;2024-03-25T02:17:49;96738.25;;;5.03
61977;BMP280;45905;50.570;10.428;2024-03-25T02:20:15;96733.50;;;5.00
61977;BMP280;45905;50.570;10.428;2024-03-25T02:22:42;96737.13;;;4.97
61977;BMP280;45905;50.570;10.428;2024-03-25T02:25:10;96734.75;;;4.96
61977;BMP280;45905;50.570;10.428;2024-03-25T02:27:39;96734.63;;;4.97
61977;BMP280;45905;50.570;10.428;2024-03-25T02:30:10;96730.69;;;4.95
61977;BMP280;45905;50.570;10.428;2024-03-25T02:32:39;96749.97;;;4.94
61977;BMP280;45905;50.570;10.428;2024-03-25T02:35:16;96740.84;;;4.94
61977;BMP280;45905;50.570;10.428;2024-03-25T02:37:43;96746.16;;;4.91
61977;BMP280;45905;50.570;10.428;2024-03-25T02:40:10;96749.19;;;4.94
61977;BMP280;45905;50.570;10.428;2024-03-25T02:42:39;96763.00;;;4.98
61977;BMP280;45905;50.570;10.428;2024-03-25T02:45:07;96753.91;;;4.97
61977;BMP280;45905;50.570;10.428;2024-03-25T02:47:33;96750.28;;;4.99
61977;BMP280;45905;50.570;10.428;2024-03-25T02:49:59;96753.44;;;5.01
61977;BMP280;45905;50.570;10.428;2024-03-25T02:52:27;96760.84;;;5.03
61977;BMP280;45905;50.570;10.428;2024-03-25T02:54:53;96764.91;;;5.04
61977;BMP280;45905;50.570;10.428;2024-03-25T02:57:23;96760.69;;;5.04
61977;BMP280;45905;50.570;10.428;2024-03-25T02:59:49;96769.16;;;5.03
61977;BMP280;45905;50.570;10.428;2024-03-25T03:02:16;96757.69;;;5.01
61977;BMP280;45905;50.570;10.428;2024-03-25T03:04:42;96764.41;;;5.00
61977;BMP280;45905;50.570;10.428;2024-03-25T03:07:08;96768.66;;;5.00
61977;BMP280;45905;50.570;10.428;2024-03-25T03:09:35;96759.25;;;5.02
61977;BMP280;45905;50.570;10.428;2024-03-25T03:12:01;96769.94;;;5.04
61977;BMP280;45905;50.570;10.428;2024-03-25T03:14:28;96771.81;;;5.02
61977;BMP280;45905;50.570;10.428;2024-03-25T03:16:54;96768.66;;;5.00
61977;BMP280;45905;50.570;10.428;2024-03-25T03:19:25;96775.25;;;5.01
61977;BMP280;45905;50.570;10.428;2024-03-25T03:21:53;96770.22;;;5.01
61977;BMP280;45905;50.570;10.428;2024-03-25T03:24:20;96773.66;;;5.00
61977;BMP280;45905;50.570;10.428;2024-03-25T03:26:46;96776.97;;;5.00
61977;BMP280;45905;50.570;10.428;2024-03-25T03:29:12;96780.22;;;4.93
61977;BMP280;45905;50.570;10.428;2024-03-25T03:31:39;96782.38;;;4.88
61977;BMP280;45905;50.570;10.428;2024-03-25T03:34:05;96782.66;;;4.85
61977;BMP280;45905;50.570;10.428;2024-03-25T03:36:32;96780.16;;;4.85
61977;BMP280;45905;50.570;10.428;2024-03-25T03:38:58;96782.03;;;4.83
61977;BMP280;45905;50.570;10.428;2024-03-25T03:41:24;96782.66;;;4.85
61977;BMP280;45905;50.570;10.428;2024-03-25T03:43:51;96775.44;;;4.82
61977;BMP280;45905;50.570;10.428;2024-03-25T03:46:17;96776.72;;;4.86
61977;BMP280;45905;50.570;10.428;2024-03-25T03:48:44;96776.72;;;4.86
61977;BMP280;45905;50.570;10.428;2024-03-25T03:51:10;96778.59;;;4.84
61977;BMP280;45905;50.570;10.428;2024-03-25T03:53:37;96781.75;;;4.86
61977;BMP280;45905;50.570;10.428;2024-03-25T03:56:04;96775.16;;;4.85
61977;BMP280;45905;50.570;10.428;2024-03-25T03:58:34;96775.66;;;4.89
61977;BMP280;45905;50.570;10.428;2024-03-25T04:01:01;96777.06;;;4.91
61977;BMP280;45905;50.570;10.428;2024-03-25T04:03:29;96783.50;;;4.94
61977;BMP280;45905;50.570;10.428;2024-03-25T04:05:55;96792.63;;;4.94
61977;BMP280;45905;50.570;10.428;2024-03-25T04:08:22;96788.25;;;4.96
61977;BMP280;45905;50.570;10.428;2024-03-25T04:10:48;96790.63;;;4.98
61977;BMP280;45905;50.570;10.428;2024-03-25T04:13:15;96798.75;;;5.00
61977;BMP280;45905;50.570;10.428;2024-03-25T04:15:43;96806.28;;;5.00
61977;BMP280;45905;50.570;10.428;2024-03-25T04:18:09;96800.34;;;5.01
61977;BMP280;45905;50.570;10.428;2024-03-25T04:20:41;96807.53;;;4.96
61977;BMP280;45905;50.570;10.428;2024-03-25T04:23:07;96807.75;;;4.85
61977;BMP280;45905;50.570;10.428;2024-03-25T04:25:35;96803.38;;;4.87
61977;BMP280;45905;50.570;10.428;2024-03-25T04:28:05;96806.03;;;4.86
61977;BMP280;45905;50.570;10.428;2024-03-25T04:30:34;96804.97;;;4.88
61977;BMP280;45905;50.570;10.428;2024-03-25T04:33:01;96796.50;;;4.89
61977;BMP280;45905;50.570;10.428;2024-03-25T04:35:27;96798.84;;;4.91
61977;BMP280;45905;50.570;10.428;2024-03-25T04:37:54;96804.97;;;4.88
61977;BMP280;45905;50.570;10.428;2024-03-25T04:40:22;96803.38;;;4.87
61977;BMP280;45905;50.570;10.428;2024-03-25T04:42:48;96805.13;;;4.87
61977;BMP280;45905;50.570;10.428;2024-03-25T04:45:15;96797.88;;;4.84
61977;BMP280;45905;50.570;10.428;2024-03-25T04:47:41;96806.84;;;4.86
61977;BMP280;45905;50.570;10.428;2024-03-25T04:50:08;96806.03;;;4.86
61977;BMP280;45905;50.570;10.428;2024-03-25T04:52:35;96817.16;;;4.83
61977;BMP280;45905;50.570;10.428;2024-03-25T04:55:02;96822.16;;;4.83
61977;BMP280;45905;50.570;10.428;2024-03-25T04:57:28;96814.03;;;4.81
61977;BMP280;45905;50.570;10.428;2024-03-25T04:59:54;96817.47;;;4.80
61977;BMP280;45905;50.570;10.428;2024-03-25T05:02:21;96817.75;;;4.77
61977;BMP280;45905;50.570;10.428;2024-03-25T05:04:47;96822.47;;;4.80
61977;BMP280;45905;50.570;10.428;2024-03-25T05:07:13;96823.25;;;4.81
61977;BMP280;45905;50.570;10.428;2024-03-25T05:09:40;96823.69;;;4.76
61977;BMP280;45905;50.570;10.428;2024-03-25T05:12:07;96824.34;;;4.78
61977;BMP280;45905;50.570;10.428;2024-03-25T05:14:33;96829.06;;;4.81
61977;BMP280;45905;50.570;10.428;2024-03-25T05:16:59;96843.16;;;4.82
61977;BMP280;45905;50.570;10.428;2024-03-25T05:19:27;96834.09;;;4.81
61977;BMP280;45905;50.570;10.428;2024-03-25T05:21:54;96827.19;;;4.83
61977;BMP280;45905;50.570;10.428;2024-03-25T05:24:20;96835.34;;;4.85
61977;BMP280;45905;50.570;10.428;2024-03-25T05:26:47;96829.69;;;4.83
61977;BMP280;45905;50.570;10.428;2024-03-25T05:29:13;96846.19;;;4.86
61977;BMP280;45905;50.570;10.428;2024-03-25T05:31:56;96837.59;;;4.88
61977;BMP280;45905;50.570;10.428;2024-03-25T05:34:23;96839.00;;;4.91
61977;BMP280;45905;50.570;10.428;2024-03-25T05:36:50;96845.31;;;4.94
61977;BMP280;45905;50.570;10.428;2024-03-25T05:39:17;96853.75;;;4.94
61977;BMP280;45905;50.570;10.428;2024-03-25T05:41:43;96851.13;;;4.95
61977;BMP280;45905;50.570;10.428;2024-03-25T05:44:09;96853.63;;;4.95
61977;BMP280;45905;50.570;10.428;2024-03-25T05:46:36;96872.13;;;4.94
61977;BMP280;45905;50.570;10.428;2024-03-25T05:49:05;96863.53;;;4.96
61977;BMP280;45905;50.570;10.428;2024-03-25T05:51:33;96870.91;;;4.98
61977;BMP280;45905;50.570;10.428;2024-03-25T05:53:59;96873.56;;;4.96
61977;BMP280;45905;50.570;10.428;2024-03-25T05:56:27;96878.56;;;4.96
61977;BMP280;45905;50.570;10.428;2024-03-25T05:59:00;96870.69;;;4.92
61977;BMP280;45905;50.570;10.428;2024-03-25T06:01:27;96866.44;;;4.92
61977;BMP280;45905;50.570;10.428;2024-03-25T06:03:53;96878.22;;;4.92
61977;BMP280;45905;50.570;10.428;2024-03-25T06:06:20;96871.59;;;4.91
61977;BMP280;45905;50.570;10.428;2024-03-25T06:08:47;96875.22;;;4.88
61977;BMP280;45905;50.570;10.428;2024-03-25T06:11:14;96872.72;;;4.88
61977;BMP280;45905;50.570;10.428;2024-03-25T06:13:40;96873.84;;;4.94
61977;BMP280;45905;50.570;10.428;2024-03-25T06:16:07;96885.47;;;4.94
61977;BMP280;45905;50.570;10.428;2024-03-25T06:18:33;96882.81;;;4.96
61977;BMP280;45905;50.570;10.428;2024-03-25T06:20:59;96885.97;;;4.98
61977;BMP280;45905;50.570;10.428;2024-03-25T06:23:29;96888.47;;;4.98
61977;BMP280;45905;50.570;10.428;2024-03-25T06:25:56;96886.25;;;4.95
61977;BMP280;45905;50.570;10.428;2024-03-25T06:28:23;96890.19;;;4.97
61977;BMP280;45905;50.570;10.428;2024-03-25T06:30:51;96893.03;;;5.02
61977;BMP280;45905;50.570;10.428;2024-03-25T06:33:37;96890.13;;;5.07
61977;BMP280;45905;50.570;10.428;2024-03-25T06:36:22;96888.22;;;5.09
61977;BMP280;45905;50.570;10.428;2024-03-25T06:38:49;96875.66;;;5.09
61977;BMP280;45905;50.570;10.428;2024-03-25T06:41:16;96887.94;;;5.12
61977;BMP280;45905;50.570;10.428;2024-03-25T06:43:42;96885.00;;;5.16
61977;BMP280;45905;50.570;10.428;2024-03-25T06:46:09;96889.72;;;5.19
61977;BMP280;45905;50.570;10.428;2024-03-25T06:48:35;96888.91;;;5.18
61977;BMP280;45905;50.570;10.428;2024-03-25T06:51:04;96888.63;;;5.21
61977;BMP280;45905;50.570;10.428;2024-03-25T06:53:30;96895.88;;;5.24
61977;BMP280;45905;50.570;10.428;2024-03-25T06:55:59;96904.03;;;5.26
61977;BMP280;45905;50.570;10.428;2024-03-25T06:58:26;96919.88;;;5.27
61977;BMP280;45905;50.570;10.428;2024-03-25T07:00:56;96919.59;;;5.30
61977;BMP280;45905;50.570;10.428;2024-03-25T07:03:23;96918.81;;;5.29
61977;BMP280;45905;50.570;10.428;2024-03-25T07:05:51;96923.56;;;5.32
61977;BMP280;45905;50.570;10.428;2024-03-25T07:08:23;96922.63;;;5.33
61977;BMP280;45905;50.570;10.428;2024-03-25T07:10:49;96908.19;;;5.35
61977;BMP280;45905;50.570;10.428;2024-03-25T07:13:16;96923.41;;;5.33
61977;BMP280;45905;50.570;10.428;2024-03-25T07:15:43;96931.09;;;5.32
61977;BMP280;45905;50.570;10.428;2024-03-25T07:18:11;96934.81;;;5.28
61977;BMP280;45905;50.570;10.428;2024-03-25T07:20:43;96933.22;;;5.27
61977;BMP280;45905;50.570;10.428;2024-03-25T07:23:11;96941.22;;;5.23
61977;BMP280;45905;50.570;10.428;2024-03-25T07:25:37;96935.53;;;5.21
61977;BMP280;45905;50.570;10.428;2024-03-25T07:28:06;96947.66;;;5.25
61977;BMP280;45905;50.570;10.428;2024-03-25T07:30:34;96958.34;;;5.27
61977;BMP280;45905;50.570;10.428;2024-03-25T07:33:01;96961.34;;;5.31
61977;BMP280;45905;50.570;10.428;2024-03-25T07:35:27;96962.00;;;5.32
61977;BMP280;45905;50.570;10.428;2024-03-25T07:37:54;96960.91;;;5.35
61977;BMP280;45905;50.570;10.428;2024-03-25T07:40:23;96961.69;;;5.35
61977;BMP280;45905;50.570;10.428;2024-03-25T07:42:49;96970.66;;;5.38
61977;BMP280;45905;50.570;10.428;2024-03-25T07:45:16;96962.47;;;5.36
61977;BMP280;45905;50.570;10.428;2024-03-25T07:47:43;96975.34;;;5.33
61977;BMP280;45905;50.570;10.428;2024-03-25T07:50:11;96976.28;;;5.32
61977;BMP280;45905;50.570;10.428;2024-03-25T07:52:37;96983.16;;;5.30
61977;BMP280;45905;50.570;10.428;2024-03-25T07:55:07;96970.75;;;5.29
61977;BMP280;45905;50.570;10.428;2024-03-25T07:57:34;96970.09;;;5.27
61977;BMP280;45905;50.570;10.428;2024-03-25T08:00:01;96971.34;;;5.23
61977;BMP280;45905;50.570;10.428;2024-03-25T08:02:27;96971.81;;;5.26
61977;BMP280;45905;50.570;10.428;2024-03-25T08:04:54;96978.16;;;5.30
61977;BMP280;45905;50.570;10.428;2024-03-25T08:07:20;96977.88;;;5.33
61977;BMP280;45905;50.570;10.428;2024-03-25T08:09:46;96968.16;;;5.38
61977;BMP280;45905;50.570;10.428;2024-03-25T08:12:13;96974.72;;;5.56
61977;BMP280;45905;50.570;10.428;2024-03-25T08:14:39;96978.06;;;5.64
61977;BMP280;45905;50.570;10.428;2024-03-25T08:17:05;96969.34;;;5.68
61977;BMP280;45905;50.570;10.428;2024-03-25T08:19:31;96969.34;;;5.68
61977;BMP280;45905;50.570;10.428;2024-03-25T08:21:58;96967.00;;;5.67
61977;BMP280;45905;50.570;10.428;2024-03-25T08:24:24;96967.19;;;5.73
61977;BMP280;45905;50.570;10.428;2024-03-25T08:26:50;96968.75;;;5.74
61977;BMP280;45905;50.570;10.428;2024-03-25T08:29:17;96974.28;;;5.77
61977;BMP280;45905;50.570;10.428;2024-03-25T08:31:43;96973.69;;;5.83
61977;BMP280;45905;50.570;10.428;2024-03-25T08:34:09;96974.81;;;5.89
61977;BMP280;45905;50.570;10.428;2024-03-25T08:36:36;96980.19;;;5.93
61977;BMP280;45905;50.570;10.428;2024-03-25T08:39:02;96981.97;;;6.01
61977;BMP280;45905;50.570;10.428;2024-03-25T08:41:30;96984.50;;;6.09
61977;BMP280;45905;50.570;10.428;2024-03-25T08:43:56;96974.00;;;6.13
61977;BMP280;45905;50.570;10.428;2024-03-25T08:46:22;96980.00;;;6.20
61977;BMP280;45905;50.570;10.428;2024-03-25T08:48:49;96976.25;;;6.24
61977;BMP280;45905;50.570;10.428;2024-03-25T08:51:16;96977.69;;;6.26
61977;BMP280;45905;50.570;10.428;2024-03-25T08:53:42;96977.22;;;6.30
61977;BMP280;45905;50.570;10.428;2024-03-25T08:56:09;96975.19;;;6.34
61977;BMP280;45905;50.570;10.428;2024-03-25T08:58:36;96962.31;;;6.29
61977;BMP280;45905;50.570;10.428;2024-03-25T09:01:03;96970.31;;;6.32
61977;BMP280;45905;50.570;10.428;2024-03-25T09:03:29;96969.88;;;6.37
61977;BMP280;45905;50.570;10.428;2024-03-25T09:05:56;96959.66;;;6.38
61977;BMP280;45905;50.570;10.428;2024-03-25T09:08:22;96962.66;;;6.42
61977;BMP280;45905;50.570;10.428;2024-03-25T09:10:48;96971.13;;;6.41
61977;BMP280;45905;50.570;10.428;2024-03-25T09:13:31;96971.91;;;6.41
61977;BMP280;45905;50.570;10.428;2024-03-25T09:15:57;96970.34;;;6.40
61977;BMP280;45905;50.570;10.428;2024-03-25T09:18:24;96968.97;;;6.46
61977;BMP280;45905;50.570;10.428;2024-03-25T09:20:52;96967.84;;;6.48
61977;BMP280;45905;50.570;10.428;2024-03-25T09:23:19;96965.81;;;6.51
61977;BMP280;45905;50.570;10.428;2024-03-25T09:25:55;96973.53;;;6.58
61977;BMP280;45905;50.570;10.428;2024-03-25T09:28:21;96968.53;;;6.66
61977;BMP280;45905;50.570;10.428;2024-03-25T09:30:48;96967.16;;;6.71
61977;BMP280;45905;50.570;10.428;2024-03-25T09:33:16;96977.22;;;6.79
61977;BMP280;45905;50.570;10.428;2024-03-25T09:35:42;96979.28;;;6.83
61977;BMP280;45905;50.570;10.428;2024-03-25T09:38:08;96979.75;;;6.79
61977;BMP280;45905;50.570;10.428;2024-03-25T09:40:40;96974.06;;;6.77
61977;BMP280;45905;50.570;10.428;2024-03-25T09:43:33;96978.66;;;6.81
61977;BMP280;45905;50.570;10.428;2024-03-25T09:46:03;96982.13;;;6.80
61977;BMP280;45905;50.570;10.428;2024-03-25T09:48:30;96981.97;;;6.82
61977;BMP280;45905;50.570;10.428;2024-03-25T09:50:58;96990.13;;;6.84
61977;BMP280;45905;50.570;10.428;2024-03-25T09:53:25;96975.50;;;6.79
61977;BMP280;45905;50.570;10.428;2024-03-25T09:55:51;96973.44;;;6.75
61977;BMP280;45905;50.570;10.428;2024-03-25T09:58:19;96976.56;;;6.69
61977;BMP280;45905;50.570;10.428;2024-03-25T10:00:46;96974.41;;;6.74
61977;BMP280;45905;50.570;10.428;2024-03-25T10:03:13;96974.56;;;6.80
61977;BMP280;45905;50.570;10.428;2024-03-25T10:05:40;96973.16;;;6.85
61977;BMP280;45905;50.570;10.428;2024-03-25T10:08:07;96975.50;;;6.87
61977;BMP280;45905;50.570;10.428;2024-03-25T10:10:36;96979.13;;;6.92
61977;BMP280;45905;50.570;10.428;2024-03-25T10:13:06;96969.25;;;6.99
61977;BMP280;45905;50.570;10.428;2024-03-25T10:15:33;96965.94;;;7.06
61977;BMP280;45905;50.570;10.428;2024-03-25T10:17:59;96968.63;;;7.12
61977;BMP280;45905;50.570;10.428;2024-03-25T10:20:26;96961.06;;;7.20
61977;BMP280;45905;50.570;10.428;2024-03-25T10:22:53;96968.97;;;7.25
61977;BMP280;45905;50.570;10.428;2024-03-25T10:25:29;96966.75;;;7.30
61977;BMP280;45905;50.570;10.428;2024-03-25T10:28:02;96962.84;;;7.35
61977;BMP280;45905;50.570;10.428;2024-03-25T10:30:29;96956.66;;;7.38
61977;BMP280;45905;50.570;10.428;2024-03-25T10:33:00;96952.91;;;7.42
61977;BMP280;45905;50.570;10.428;2024-03-25T10:35:29;96953.19;;;7.46
61977;BMP280;45905;50.570;10.428;2024-03-25T10:40:33;96949.72;;;7.55
61977;BMP280;45905;50.570;10.428;2024-03-25T10:43:11;96951.00;;;7.59
61977;BMP280;45905;50.570;10.428;2024-03-25T10:45:47;96935.09;;;7.59
61977;BMP280;45905;50.570;10.428;2024-03-25T10:48:54;96947.69;;;7.59
61977;BMP280;45905;50.570;10.428;2024-03-25T10:51:23;96941.53;;;7.53
61977;BMP280;45905;50.570;10.428;2024-03-25T10:53:55;96935.72;;;7.53
61977;BMP280;45905;50.570;10.428;2024-03-25T10:56:24;96927.69;;;7.57
61977;BMP280;45905;50.570;10.428;2024-03-25T10:58:50;96922.00;;;7.63
61977;BMP280;45905;50.570;10.428;2024-03-25T11:01:19;96921.03;;;7.72
61977;BMP280;45905;50.570;10.428;2024-03-25T11:03:47;96913.78;;;7.77
61977;BMP280;45905;50.570;10.428;2024-03-25T11:06:15;96910.59;;;7.90
61977;BMP280;45905;50.570;10.428;2024-03-25T11:08:42;96908.22;;;8.04
61977;BMP280;45905;50.570;10.428;2024-03-25T11:11:13;96911.00;;;8.17
61977;BMP280;45905;50.570;10.428;2024-03-25T11:13:42;96905.13;;;8.24
61977;BMP280;45905;50.570;10.428;2024-03-25T11:16:09;96906.19;;;8.38
61977;BMP280;45905;50.570;10.428;2024-03-25T11:18:36;96902.84;;;8.45
61977;BMP280;45905;50.570;10.428;2024-03-25T11:21:07;96901.84;;;8.54
61977;BMP280;45905;50.570;10.428;2024-03-25T11:23:42;96892.53;;;8.76
61977;BMP280;45905;50.570;10.428;2024-03-25T11:26:27;96901.63;;;8.85
61977;BMP280;45905;50.570;10.428;2024-03-25T11:28:57;96901.53;;;8.78
61977;BMP280;45905;50.570;10.428;2024-03-25T11:31:26;96903.31;;;8.70
61977;BMP280;45905;50.570;10.428;2024-03-25T11:33:54;96886.59;;;8.69
61977;BMP280;45905;50.570;10.428;2024-03-25T11:36:21;96886.59;;;8.69
61977;BMP280;45905;50.570;10.428;2024-03-25T11:39:01;96891.63;;;8.69
61977;BMP280;45905;50.570;10.428;2024-03-25T11:41:33;96888.50;;;8.67
61977;BMP280;45905;50.570;10.428;2024-03-25T11:44:02;96891.00;;;8.67
61977;BMP280;45905;50.570;10.428;2024-03-25T11:46:28;96891.63;;;8.69
61977;BMP280;45905;50.570;10.428;2024-03-25T11:48:55;96887.84;;;8.73
61977;BMP280;45905;50.570;10.428;2024-03-25T11:51:21;96885.59;;;8.78
61977;BMP280;45905;50.570;10.428;2024-03-25T11:53:51;96883.22;;;8.76
61977;BMP280;45905;50.570;10.428;2024-03-25T11:56:17;96872.34;;;8.76
61977;BMP280;45905;50.570;10.428;2024-03-25T11:58:45;96878.75;;;8.64
61977;BMP280;45905;50.570;10.428;2024-03-25T12:01:12;96874.97;;;8.60
61977;BMP280;45905;50.570;10.428;2024-03-25T12:03:43;96874.75;;;8.70
61977;BMP280;45905;50.570;10.428;2024-03-25T12:06:09;96870.44;;;8.78
61977;BMP280;45905;50.570;10.428;2024-03-25T12:08:36;96867.69;;;8.87
61977;BMP280;45905;50.570;10.428;2024-03-25T12:11:11;96864.31;;;8.95
61977;BMP280;45905;50.570;10.428;2024-03-25T12:13:44;96856.56;;;8.96
61977;BMP280;45905;50.570;10.428;2024-03-25T12:16:11;96851.09;;;8.93
61977;BMP280;45905;50.570;10.428;2024-03-25T12:18:40;96850.56;;;8.97
61977;BMP280;45905;50.570;10.428;2024-03-25T12:21:15;96844.44;;;9.14
61977;BMP280;45905;50.570;10.428;2024-03-25T12:23:42;96846.63;;;9.31
61977;BMP280;45905;50.570;10.428;2024-03-25T12:26:09;96841.50;;;9.38
61977;BMP280;45905;50.570;10.428;2024-03-25T12:28:35;96836.03;;;9.49
61977;BMP280;45905;50.570;10.428;2024-03-25T12:31:08;96839.44;;;9.56
61977;BMP280;45905;50.570;10.428;2024-03-25T12:33:44;96830.88;;;9.57
61977;BMP280;45905;50.570;10.428;2024-03-25T12:36:13;96829.78;;;9.45
61977;BMP280;45905;50.570;10.428;2024-03-25T12:38:40;96824.97;;;9.50
61977;BMP280;45905;50.570;10.428;2024-03-25T12:41:11;96824.09;;;9.57
61977;BMP280;45905;50.570;10.428;2024-03-25T12:43:45;96826.13;;;9.62
61977;BMP280;45905;50.570;10.428;2024-03-25T12:46:12;96815.63;;;9.65
61977;BMP280;45905;50.570;10.428;2024-03-25T12:48:39;96819.38;;;9.69
61977;BMP280;45905;50.570;10.428;2024-03-25T12:51:14;96817.47;;;9.71
61977;BMP280;45905;50.570;10.428;2024-03-25T12:53:42;96811.72;;;9.76
61977;BMP280;45905;50.570;10.428;2024-03-25T12:56:08;96802.84;;;9.80
61977;BMP280;45905;50.570;10.428;2024-03-25T12:58:35;96806.25;;;9.87
61977;BMP280;45905;50.570;10.428;2024-03-25T13:01:02;96797.22;;;9.99
61977;BMP280;45905;50.570;10.428;2024-03-25T13:03:29;96792.84;;;10.07
61977;BMP280;45905;50.570;10.428;2024-03-25T13:05:55;96798.16;;;10.12
61977;BMP280;45905;50.570;10.428;2024-03-25T13:08:24;96794.41;;;10.22
61977;BMP280;45905;50.570;10.428;2024-03-25T13:10:51;96790.00;;;10.30
61977;BMP280;45905;50.570;10.428;2024-03-25T13:13:18;96789.94;;;10.45
61977;BMP280;45905;50.570;10.428;2024-03-25T13:15:44;96783.97;;;10.52
61977;BMP280;45905;50.570;10.428;2024-03-25T13:18:11;96789.00;;;10.46
61977;BMP280;45905;50.570;10.428;2024-03-25T13:20:37;96774.41;;;10.48
61977;BMP280;45905;50.570;10.428;2024-03-25T13:23:03;96774.03;;;10.50
61977;BMP280;45905;50.570;10.428;2024-03-25T13:25:30;96773.06;;;10.51
61977;BMP280;45905;50.570;10.428;2024-03-25T13:27:56;96770.19;;;10.54
61977;BMP280;45905;50.570;10.428;2024-03-25T13:30:22;96768.59;;;10.53
61977;BMP280;45905;50.570;10.428;2024-03-25T13:32:53;96773.28;;;10.50
61977;BMP280;45905;50.570;10.428;2024-03-25T13:35:19;96762.41;;;10.56
61977;BMP280;45905;50.570;10.428;2024-03-25T13:37:45;96761.50;;;10.63
61977;BMP280;45905;50.570;10.428;2024-03-25T13:40:12;96762.31;;;10.70
61977;BMP280;45905;50.570;10.428;2024-03-25T13:42:38;96760.63;;;10.77
61977;BMP280;45905;50.570;10.428;2024-03-25T13:45:05;96764.97;;;10.83
61977;BMP280;45905;50.570;10.428;2024-03-25T13:47:32;96761.94;;;10.93
61977;BMP280;45905;50.570;10.428;2024-03-25T13:50:06;96755.78;;;11.02
61977;BMP280;45905;50.570;10.428;2024-03-25T13:52:35;96759.34;;;11.14
61977;BMP280;45905;50.570;10.428;2024-03-25T13:55:02;96751.41;;;11.23
61977;BMP280;45905;50.570;10.428;2024-03-25T13:57:29;96747.00;;;11.31
61977;BMP280;45905;50.570;10.428;2024-03-25T13:59:56;96746.13;;;11.45
61977;BMP280;45905;50.570;10.428;2024-03-25T14:02:23;96742.66;;;11.52
61977;BMP280;45905;50.570;10.428;2024-03-25T14:04:51;96738.38;;;11.53
61977;BMP280;45905;50.570;10.428;2024-03-25T14:07:17;96720.03;;;11.57
61977;BMP280;45905;50.570;10.428;2024-03-25T14:10:37;96725.53;;;11.61
61977;BMP280;45905;50.570;10.428;2024-03-25T14:13:04;96718.72;;;11.61